Time;durP1;ratioP1;P1;durP2;ratioP2;P2;SDS_P1;SDS_P2;PMS_P1;PMS_P2;Temp;Humidity;BMP_temperature;BMP_pressure;BME280_temperature;BME280_humidity;BME280_pressure;Samples;Min_cycle;Max_cycle;Signal;HPM_P1;HPM_P2
2021/11/14 00:02:09;;;;;;;34.38;31.75;;;;;;;;;;4973158;28;20042;-71
2021/11/14 00:04:35;;;;;;;33.38;31.08;;;;;;;;;;4989379;28;20046;-71
2021/11/14 00:07:01;;;;;;;31.20;29.05;;;;;;;;;;4987130;28;20023;-71
2021/11/14 00:09:29;;;;;;;31.02;28.48;;;;;;;;;;4990101;28;20035;-71
2021/11/14 00:11:56;;;;;;;37.25;30.02;;;;;;;;;;4982131;28;20494;-71
2021/11/14 00:14:23;;;;;;;31.67;29.08;;;;;;;;;;4974834;28;20035;-71
2021/11/14 00:16:49;;;;;;;33.05;30.13;;;;;;;;;;4973483;28;20036;-71
2021/11/14 00:19:15;;;;;;;33.47;30.83;;;;;;;;;;4982232;28;20057;-71
2021/11/14 00:21:41;;;;;;;32.88;30.40;;;;;;;;;;4993191;28;20029;-71
2021/11/14 00:24:11;;;;;;;30.45;28.10;;;;;;;;;;4990328;28;20030;-71
2021/11/14 00:26:38;;;;;;;31.05;28.98;;;;;;;;;;4998934;28;20038;-71
2021/11/14 00:29:04;;;;;;;31.17;28.67;;;;;;;;;;4991177;28;20022;-71
2021/11/14 00:31:31;;;;;;;32.15;29.85;;;;;;;;;;4973248;28;20023;-71
2021/11/14 00:33:57;;;;;;;32.72;30.30;;;;;;;;;;4978315;28;20105;-71
2021/11/14 00:36:24;;;;;;;33.42;31.40;;;;;;;;;;4991817;28;20030;-71
2021/11/14 00:38:51;;;;;;;35.45;33.20;;;;;;;;;;4978264;28;20096;-71
2021/11/14 00:41:18;;;;;;;34.70;32.38;;;;;;;;;;4991703;28;20161;-71
2021/11/14 00:43:45;;;;;;;34.30;31.88;;;;;;;;;;4997307;28;20041;-71
2021/11/14 00:46:11;;;;;;;30.27;28.05;;;;;;;;;;4989531;28;20061;-71
2021/11/14 00:48:41;;;;;;;32.30;29.85;;;;;;;;;;4971452;28;20077;-71
2021/11/14 00:51:08;;;;;;;32.33;30.05;;;;;;;;;;4991892;28;20030;-71
2021/11/14 00:53:34;;;;;;;32.47;29.88;;;;;;;;;;4986995;28;20038;-70
2021/11/14 00:56:00;;;;;;;30.73;28.63;;;;;;;;;;4972310;28;20030;-72
2021/11/14 00:58:27;;;;;;;32.42;29.52;;;;;;;;;;4991052;28;20058;-71
2021/11/14 01:00:54;;;;;;;30.63;28.33;;;;;;;;;;4989633;28;20038;-70
2021/11/14 01:03:20;;;;;;;32.47;29.95;;;;;;;;;;4994944;28;20061;-71
2021/11/14 01:05:46;;;;;;;30.58;28.10;;;;;;;;;;4990049;28;20033;-71
2021/11/14 01:08:12;;;;;;;29.17;27.45;;;;;;;;;;4985663;28;20101;-72
2021/11/14 01:10:41;;;;;;;29.30;27.02;;;;;;;;;;4992285;28;20027;-71
2021/11/14 01:13:07;;;;;;;29.83;27.50;;;;;;;;;;4990510;28;20030;-71
2021/11/14 01:15:34;;;;;;;29.25;27.35;;;;;;;;;;4990111;28;20030;-71
2021/11/14 01:18:00;;;;;;;28.55;26.33;;;;;;;;;;5001219;28;20140;-71
2021/11/14 01:20:28;;;;;;;28.38;26.58;;;;;;;;;;4981776;28;20026;-71
2021/11/14 01:22:55;;;;;;;27.58;25.38;;;;;;;;;;4989386;28;20033;-71
2021/11/14 01:25:21;;;;;;;28.65;25.55;;;;;;;;;;4987018;28;20026;-72
2021/11/14 01:27:47;;;;;;;31.48;28.30;;;;;;;;;;4997558;28;20042;-71
2021/11/14 01:30:19;;;;;;;28.38;26.52;;;;;;;;;;4990758;28;20018;-71
2021/11/14 01:32:45;;;;;;;;;;;;;;;;;;5003134;28;20019;-71
2021/11/14 01:35:12;;;;;;;29.67;27.88;;;;;;;;;;4995793;28;20330;-71
2021/11/14 01:37:40;;;;;;;27.70;25.98;;;;;;;;;;4998677;28;20113;-71
2021/11/14 01:40:07;;;;;;;31.45;29.15;;;;;;;;;;4985219;28;20038;-71
2021/11/14 01:42:33;;;;;;;30.80;28.27;;;;;;;;;;4993661;28;20037;-71
2021/11/14 01:44:59;;;;;;;27.63;25.92;;;;;;;;;;4995417;28;20502;-71
2021/11/14 01:47:25;;;;;;;30.55;28.40;;;;;;;;;;4992712;28;20068;-71
2021/11/14 01:49:51;;;;;;;30.58;28.17;;;;;;;;;;4991200;28;20486;-71
2021/11/14 01:52:25;;;;;;;29.25;27.33;;;;;;;;;;4985165;28;20057;-71
2021/11/14 01:54:52;;;;;;;31.33;28.45;;;;;;;;;;4976426;28;20027;-71
2021/11/14 01:57:18;;;;;;;28.17;26.20;;;;;;;;;;5002817;28;20150;-71
2021/11/14 01:59:45;;;;;;;29.27;26.92;;;;;;;;;;4987945;28;20512;-71
2021/11/14 02:02:13;;;;;;;27.88;25.75;;;;;;;;;;4997673;28;20423;-71
2021/11/14 02:04:39;;;;;;;26.20;24.38;;;;;;;;;;4993178;28;20527;-71
2021/11/14 02:07:06;;;;;;;26.05;24.23;;;;;;;;;;4984744;28;20031;-71
2021/11/14 02:09:33;;;;;;;26.30;24.15;;;;;;;;;;4986913;28;20075;-71
2021/11/14 02:11:59;;;;;;;24.85;23.08;;;;;;;;;;4994492;28;20092;-71
2021/11/14 02:14:26;;;;;;;26.75;24.63;;;;;;;;;;4993048;28;20034;-71
2021/11/14 02:16:52;;;;;;;26.52;24.70;;;;;;;;;;4998056;28;20026;-71
2021/11/14 02:19:18;;;;;;;27.00;24.55;;;;;;;;;;5004894;28;20113;-71
2021/11/14 02:21:44;;;;;;;30.73;27.85;;;;;;;;;;5001182;28;20041;-71
2021/11/14 02:24:10;;;;;;;26.45;24.63;;;;;;;;;;4990194;28;21729;-71
2021/11/14 02:26:36;;;;;;;25.55;23.60;;;;;;;;;;4984236;28;20441;-71
2021/11/14 02:29:02;;;;;;;25.83;23.50;;;;;;;;;;4976705;28;20022;-71
2021/11/14 02:31:28;;;;;;;19.08;16.33;;;;;;;;;;4977164;28;20029;-71
2021/11/14 02:33:55;;;;;;;17.70;15.93;;;;;;;;;;4992915;28;20038;-71
2021/11/14 02:36:21;;;;;;;23.58;22.08;;;;;;;;;;4997120;28;20038;-71
2021/11/14 02:38:48;;;;;;;24.08;22.35;;;;;;;;;;5011641;28;20028;-71
2021/11/14 02:41:14;;;;;;;26.58;24.52;;;;;;;;;;4997555;28;20030;-71
2021/11/14 02:43:41;;;;;;;24.70;22.60;;;;;;;;;;5002335;28;20515;-70
2021/11/14 02:46:07;;;;;;;24.48;22.42;;;;;;;;;;4983382;28;20041;-71
2021/11/14 02:48:33;;;;;;;25.38;22.55;;;;;;;;;;4990797;28;20088;-71
2021/11/14 02:51:01;;;;;;;27.05;23.80;;;;;;;;;;4986440;28;20041;-72
2021/11/14 02:53:27;;;;;;;25.40;23.55;;;;;;;;;;4993132;28;20036;-71
2021/11/14 02:55:54;;;;;;;27.13;24.50;;;;;;;;;;4995874;28;20742;-71
2021/11/14 02:58:21;;;;;;;25.80;23.85;;;;;;;;;;5003793;28;20806;-71
2021/11/14 03:01:00;;;;;;;25.60;23.50;;;;;;;;;;4992966;28;20113;-71
2021/11/14 03:03:27;;;;;;;24.95;22.98;;;;;;;;;;4990164;28;20058;-70
2021/11/14 03:05:53;;;;;;;33.58;26.95;;;;;;;;;;4987790;28;20030;-71
2021/11/14 03:08:19;;;;;;;24.52;22.15;;;;;;;;;;4973386;28;20022;-71
2021/11/14 03:10:46;;;;;;;25.77;23.55;;;;;;;;;;4988839;28;20101;-71
2021/11/14 03:13:13;;;;;;;24.45;22.73;;;;;;;;;;4969575;28;20518;-71
2021/11/14 03:15:41;;;;;;;23.92;22.33;;;;;;;;;;4992724;28;20038;-71
2021/11/14 03:18:08;;;;;;;25.23;22.80;;;;;;;;;;5000309;28;20027;-71
2021/11/14 03:20:35;;;;;;;24.55;22.70;;;;;;;;;;4970662;28;20567;-71
2021/11/14 03:23:02;;;;;;;25.88;22.65;;;;;;;;;;4983478;28;20038;-71
2021/11/14 03:25:28;;;;;;;25.42;23.02;;;;;;;;;;4991761;28;20018;-71
2021/11/14 03:27:55;;;;;;;27.52;24.92;;;;;;;;;;4991285;28;20125;-71
2021/11/14 03:30:22;;;;;;;23.85;21.75;;;;;;;;;;4997046;28;20040;-71
2021/11/14 03:32:49;;;;;;;26.08;23.85;;;;;;;;;;4996571;28;21597;-71
2021/11/14 03:35:15;;;;;;;24.42;22.02;;;;;;;;;;4995310;28;20040;-71
2021/11/14 03:37:41;;;;;;;31.83;22.98;;;;;;;;;;4995653;28;20034;-71
2021/11/14 03:40:08;;;;;;;23.77;21.23;;;;;;;;;;4998779;28;20057;-71
2021/11/14 03:42:35;;;;;;;28.27;23.05;;;;;;;;;;5008275;28;20033;-71
2021/11/14 03:45:01;;;;;;;25.08;22.73;;;;;;;;;;4996072;28;20026;-71
2021/11/14 03:47:27;;;;;;;25.55;21.83;;;;;;;;;;4966179;28;20063;-71
2021/11/14 03:49:53;;;;;;;22.45;20.35;;;;;;;;;;5011369;28;20014;-71
2021/11/14 03:52:19;;;;;;;21.98;19.98;;;;;;;;;;4997086;28;20053;-71
2021/11/14 03:54:46;;;;;;;24.85;22.40;;;;;;;;;;5001861;28;20483;-71
2021/11/14 03:57:12;;;;;;;25.30;22.92;;;;;;;;;;4998514;28;20054;-71
2021/11/14 03:59:38;;;;;;;23.95;22.10;;;;;;;;;;5001393;28;20038;-71
2021/11/14 04:02:04;;;;;;;26.85;24.58;;;;;;;;;;4994064;28;20049;-71
2021/11/14 04:04:31;;;;;;;27.23;25.05;;;;;;;;;;4982111;28;20027;-71
2021/11/14 04:06:57;;;;;;;27.50;25.02;;;;;;;;;;4994344;28;20510;-71
2021/11/14 04:09:23;;;;;;;27.73;23.90;;;;;;;;;;4994069;28;20034;-71
2021/11/14 04:11:49;;;;;;;25.27;23.02;;;;;;;;;;4969496;28;20482;-71
2021/11/14 04:14:15;;;;;;;29.92;23.63;;;;;;;;;;4997979;28;20018;-71
2021/11/14 04:16:41;;;;;;;25.98;23.48;;;;;;;;;;4998067;28;20026;-71
2021/11/14 04:19:07;;;;;;;26.35;23.92;;;;;;;;;;4976915;28;20038;-71
2021/11/14 04:21:34;;;;;;;27.40;24.60;;;;;;;;;;4998642;28;20061;-71
2021/11/14 04:24:00;;;;;;;27.90;24.67;;;;;;;;;;4967750;28;20030;-70
2021/11/14 04:26:26;;;;;;;25.88;23.25;;;;;;;;;;4975009;28;20030;-71
2021/11/14 04:28:52;;;;;;;27.38;24.52;;;;;;;;;;4983758;28;20018;-71
2021/11/14 04:31:18;;;;;;;27.40;24.92;;;;;;;;;;4991439;28;20053;-71
2021/11/14 04:33:44;;;;;;;28.75;24.35;;;;;;;;;;4997580;28;20582;-71
2021/11/14 04:36:10;;;;;;;27.98;25.05;;;;;;;;;;4997788;28;20462;-71
2021/11/14 04:38:37;;;;;;;26.40;23.77;;;;;;;;;;4982265;28;20038;-71
2021/11/14 04:41:04;;;;;;;31.65;28.05;;;;;;;;;;4990584;28;20156;-71
2021/11/14 04:43:30;;;;;;;37.90;29.52;;;;;;;;;;4996719;28;20037;-71
2021/11/14 04:45:56;;;;;;;29.95;26.08;;;;;;;;;;4976901;28;20076;-71
2021/11/14 04:48:23;;;;;;;30.20;27.20;;;;;;;;;;4997045;28;20033;-71
2021/11/14 04:50:49;;;;;;;30.15;27.17;;;;;;;;;;4994153;28;20433;-71
2021/11/14 04:53:16;;;;;;;47.28;31.58;;;;;;;;;;5002322;28;20045;-71
2021/11/14 04:55:42;;;;;;;39.90;31.23;;;;;;;;;;4977947;28;20396;-71
2021/11/14 04:58:09;;;;;;;36.92;30.85;;;;;;;;;;4975734;28;20037;-72
2021/11/14 05:00:43;;;;;;;49.83;32.55;;;;;;;;;;4990359;28;20027;-71
2021/11/14 05:03:09;;;;;;;40.80;30.63;;;;;;;;;;4977548;28;20038;-71
2021/11/14 05:05:36;;;;;;;34.80;30.98;;;;;;;;;;4974100;28;20096;-71
2021/11/14 05:08:03;;;;;;;33.42;29.00;;;;;;;;;;4996861;28;20025;-71
2021/11/14 05:10:29;;;;;;;42.53;30.77;;;;;;;;;;5008846;28;20517;-71
2021/11/14 05:12:55;;;;;;;38.33;30.25;;;;;;;;;;4990004;28;20029;-71
2021/11/14 05:15:21;;;;;;;38.78;31.00;;;;;;;;;;4999995;28;20030;-71
2021/11/14 05:17:47;;;;;;;33.08;29.60;;;;;;;;;;4986961;28;20034;-71
2021/11/14 05:20:13;;;;;;;46.00;33.25;;;;;;;;;;4991281;28;20041;-71
2021/11/14 05:22:40;;;;;;;43.47;34.80;;;;;;;;;;4988270;28;20030;-71
2021/11/14 05:25:06;;;;;;;36.50;31.48;;;;;;;;;;4998131;28;20030;-71
2021/11/14 05:27:33;;;;;;;53.13;37.78;;;;;;;;;;4986516;28;20050;-71
2021/11/14 05:29:59;;;;;;;53.72;36.88;;;;;;;;;;5006142;28;20138;-71
2021/11/14 05:32:25;;;;;;;50.13;37.78;;;;;;;;;;5000144;28;20030;-71
2021/11/14 05:34:51;;;;;;;42.47;35.95;;;;;;;;;;4988486;28;20023;-71
2021/11/14 05:37:17;;;;;;;60.38;38.92;;;;;;;;;;4971810;28;20097;-71
2021/11/14 05:39:43;;;;;;;58.80;39.25;;;;;;;;;;4996083;28;20034;-71
2021/11/14 05:42:09;;;;;;;47.08;37.90;;;;;;;;;;4991590;28;20034;-71
2021/11/14 05:44:35;;;;;;;52.17;37.33;;;;;;;;;;4988093;28;20414;-71
2021/11/14 05:47:01;;;;;;;60.00;38.45;;;;;;;;;;4995021;28;20026;-71
2021/11/14 05:49:27;;;;;;;43.45;36.30;;;;;;;;;;4988176;28;20030;-71
2021/11/14 05:51:53;;;;;;;60.97;39.15;;;;;;;;;;5002580;28;20017;-71
2021/11/14 05:54:20;;;;;;;62.33;40.05;;;;;;;;;;5001582;28;20026;-71
2021/11/14 05:56:46;;;;;;;65.88;41.22;;;;;;;;;;4992492;28;20497;-71
2021/11/14 06:01:48;;;;;;;69.15;42.38;;;;;;;;;;4994427;28;20046;-71
2021/11/14 06:04:28;;;;;;;54.35;41.38;;;;;;;;;;4991036;28;20037;-71
2021/11/14 06:06:54;;;;;;;89.95;48.83;;;;;;;;;;4989668;28;20435;-71
2021/11/14 06:09:21;;;;;;;91.07;47.08;;;;;;;;;;4995217;28;20470;-71
2021/11/14 06:11:47;;;;;;;79.63;50.65;;;;;;;;;;5010845;28;20033;-71
2021/11/14 06:14:13;;;;;;;93.53;54.17;;;;;;;;;;4992466;28;20020;-71
2021/11/14 06:16:39;;;;;;;101.22;56.20;;;;;;;;;;4990029;28;20022;-71
2021/11/14 06:19:05;;;;;;;89.55;53.55;;;;;;;;;;4972114;28;20411;-71
2021/11/14 06:21:31;;;;;;;94.68;56.63;;;;;;;;;;4985380;28;20687;-70
2021/11/14 06:23:57;;;;;;;95.35;55.28;;;;;;;;;;4996141;28;20029;-71
2021/11/14 06:26:24;;;;;;;97.75;56.78;;;;;;;;;;5008308;28;20018;-70
2021/11/14 06:28:50;;;;;;;100.50;54.25;;;;;;;;;;4983987;28;20437;-71
2021/11/14 06:31:16;;;;;;;95.40;52.83;;;;;;;;;;4997271;28;20026;-70
2021/11/14 06:33:43;;;;;;;98.68;54.58;;;;;;;;;;5000947;28;20029;-71
2021/11/14 06:36:09;;;;;;;99.25;57.15;;;;;;;;;;4981229;28;20031;-70
2021/11/14 06:38:35;;;;;;;112.00;55.78;;;;;;;;;;4988336;28;20046;-70
2021/11/14 06:41:01;;;;;;;100.07;55.83;;;;;;;;;;5014324;28;20375;-71
2021/11/14 06:43:28;;;;;;;109.03;57.38;;;;;;;;;;4989727;28;20454;-71
2021/11/14 06:45:54;;;;;;;107.68;56.88;;;;;;;;;;5003249;28;20438;-71
2021/11/14 06:48:20;;;;;;;116.85;59.75;;;;;;;;;;4994371;28;20022;-71
2021/11/14 06:50:46;;;;;;;112.13;56.30;;;;;;;;;;4970688;28;20487;-71
2021/11/14 06:53:12;;;;;;;98.47;54.67;;;;;;;;;;5001012;28;20029;-71
2021/11/14 06:55:39;;;;;;;108.38;58.22;;;;;;;;;;4975345;28;20023;-71
2021/11/14 06:58:05;;;;;;;111.38;59.58;;;;;;;;;;4990241;28;20030;-71
2021/11/14 07:00:31;;;;;;;121.88;61.78;;;;;;;;;;5000490;28;20073;-71
2021/11/14 07:02:57;;;;;;;96.53;55.45;;;;;;;;;;5010187;28;20503;-71
2021/11/14 07:05:23;;;;;;;121.65;58.95;;;;;;;;;;4991657;28;20459;-71
2021/11/14 07:07:49;;;;;;;115.85;57.90;;;;;;;;;;4992363;28;20033;-71
2021/11/14 07:10:16;;;;;;;117.28;58.30;;;;;;;;;;4995008;28;21626;-71
2021/11/14 07:12:43;;;;;;;122.43;60.95;;;;;;;;;;4973611;28;20037;-71
2021/11/14 07:15:13;;;;;;;118.97;60.42;;;;;;;;;;4995017;28;20034;-71
2021/11/14 07:17:39;;;;;;;118.28;59.95;;;;;;;;;;5082611;23;20060;-70
2021/11/14 07:20:06;;;;;;;117.75;60.75;;;;;;;;;;4993484;28;20030;-71
2021/11/14 07:22:33;;;;;;;140.77;61.72;;;;;;;;;;4993990;28;20436;-70
2021/11/14 07:24:59;;;;;;;126.60;64.43;;;;;;;;;;4968969;28;20153;-71
2021/11/14 07:27:25;;;;;;;141.75;61.58;;;;;;;;;;4987676;28;20041;-71
2021/11/14 07:29:51;;;;;;;137.25;62.65;;;;;;;;;;4981322;28;20026;-71
2021/11/14 07:32:18;;;;;;;137.50;62.10;;;;;;;;;;4981597;28;20018;-70
2021/11/14 07:34:44;;;;;;;134.73;59.95;;;;;;;;;;4974653;28;20035;-71
2021/11/14 07:37:10;;;;;;;135.35;59.25;;;;;;;;;;4951421;28;20034;-71
2021/11/14 07:39:36;;;;;;;139.70;61.78;;;;;;;;;;4976151;28;20458;-71
2021/11/14 07:42:03;;;;;;;141.63;59.42;;;;;;;;;;4990661;28;20041;-71
2021/11/14 07:44:29;;;;;;;128.10;57.38;;;;;;;;;;4986374;28;20030;-71
2021/11/14 07:46:55;;;;;;;132.63;58.58;;;;;;;;;;4972348;28;20073;-71
2021/11/14 07:49:21;;;;;;;143.55;59.90;;;;;;;;;;4988638;28;20038;-71
2021/11/14 07:51:48;;;;;;;149.48;58.40;;;;;;;;;;4987162;28;21011;-71
2021/11/14 07:54:14;;;;;;;121.90;54.20;;;;;;;;;;4989012;28;20022;-71
2021/11/14 07:56:40;;;;;;;124.20;54.65;;;;;;;;;;4988441;28;20125;-70
2021/11/14 07:59:06;;;;;;;126.82;55.22;;;;;;;;;;4986036;28;20101;-71
2021/11/14 08:01:32;;;;;;;131.65;53.83;;;;;;;;;;4988504;28;20060;-71
2021/11/14 08:03:58;;;;;;;126.93;54.63;;;;;;;;;;4981741;28;20385;-70
2021/11/14 08:06:24;;;;;;;116.20;52.58;;;;;;;;;;4971803;28;20034;-71
2021/11/14 08:08:50;;;;;;;112.55;53.47;;;;;;;;;;4982349;28;20117;-70
2021/11/14 08:11:16;;;;;;;121.10;55.83;;;;;;;;;;4988111;28;20100;-71
2021/11/14 08:13:42;;;;;;;101.80;52.13;;;;;;;;;;4973164;28;20227;-71
2021/11/14 08:16:08;;;;;;;108.35;52.83;;;;;;;;;;4969821;28;20037;-71
2021/11/14 08:18:35;;;;;;;86.55;49.60;;;;;;;;;;4982982;28;20077;-71
2021/11/14 08:21:01;;;;;;;94.82;49.65;;;;;;;;;;4967018;28;20058;-71
2021/11/14 08:23:28;;;;;;;89.35;49.40;;;;;;;;;;4988968;28;20081;-71
2021/11/14 08:25:54;;;;;;;79.22;47.70;;;;;;;;;;4986857;28;20061;-70
2021/11/14 08:28:20;;;;;;;85.35;49.65;;;;;;;;;;4984527;28;20410;-71
2021/11/14 08:30:46;;;;;;;81.18;47.05;;;;;;;;;;4986236;28;20026;-71
2021/11/14 08:33:13;;;;;;;70.30;47.75;;;;;;;;;;4988070;28;20408;-71
2021/11/14 08:35:40;;;;;;;81.80;49.60;;;;;;;;;;4987278;28;20045;-71
2021/11/14 08:38:06;;;;;;;76.80;49.08;;;;;;;;;;4983696;28;20022;-71
2021/11/14 08:40:33;;;;;;;78.03;49.45;;;;;;;;;;4966283;28;20044;-70
2021/11/14 08:43:03;;;;;;;74.75;46.55;;;;;;;;;;4988259;28;20132;-70
2021/11/14 08:45:31;;;;;;;71.88;47.97;;;;;;;;;;4990865;28;20033;-70
2021/11/14 08:47:57;;;;;;;67.35;49.97;;;;;;;;;;4987896;28;20091;-70
2021/11/14 08:50:24;;;;;;;67.88;47.33;;;;;;;;;;4973962;28;20026;-70
2021/11/14 08:52:50;;;;;;;67.63;48.40;;;;;;;;;;4977072;28;20054;-70
2021/11/14 08:55:17;;;;;;;71.10;49.45;;;;;;;;;;4990143;28;20049;-70
2021/11/14 08:57:44;;;;;;;72.30;49.80;;;;;;;;;;4991433;28;20018;-70
2021/11/14 09:00:11;;;;;;;69.22;49.70;;;;;;;;;;4978561;28;20033;-70
2021/11/14 09:02:37;;;;;;;75.15;55.92;;;;;;;;;;4969752;28;20093;-70
2021/11/14 09:05:04;;;;;;;74.10;53.13;;;;;;;;;;4971252;28;20030;-70
2021/11/14 09:07:30;;;;;;;71.30;50.88;;;;;;;;;;4988521;28;20030;-72
2021/11/14 09:09:56;;;;;;;74.60;51.40;;;;;;;;;;4984622;28;20030;-70
2021/11/14 09:12:23;;;;;;;71.07;51.63;;;;;;;;;;4981482;28;20109;-70
2021/11/14 09:14:49;;;;;;;73.57;52.13;;;;;;;;;;4984397;28;20018;-70
2021/11/14 09:17:16;;;;;;;71.95;51.20;;;;;;;;;;4977377;28;20050;-70
2021/11/14 09:19:42;;;;;;;66.97;52.60;;;;;;;;;;4985181;28;20027;-70
2021/11/14 09:22:09;;;;;;;72.00;55.05;;;;;;;;;;4984176;28;20062;-70
2021/11/14 09:24:35;;;;;;;64.43;50.50;;;;;;;;;;4964857;28;20420;-70
2021/11/14 09:27:01;;;;;;;72.13;55.22;;;;;;;;;;4988762;28;20038;-70
2021/11/14 09:29:27;;;;;;;65.43;50.42;;;;;;;;;;4987475;28;20525;-70
2021/11/14 09:31:53;;;;;;;61.78;49.03;;;;;;;;;;4968747;28;20029;-71
2021/11/14 09:34:20;;;;;;;63.22;55.00;;;;;;;;;;4962871;28;20026;-70
2021/11/14 09:36:47;;;;;;;61.70;53.10;;;;;;;;;;4966992;28;20066;-70
2021/11/14 09:39:13;;;;;;;65.97;58.08;;;;;;;;;;4991222;28;20033;-70
2021/11/14 09:41:42;;;;;;;69.60;56.20;;;;;;;;;;5003207;28;20049;-70
2021/11/14 09:44:10;;;;;;;68.88;59.85;;;;;;;;;;4965750;28;20030;-70
2021/11/14 09:46:38;;;;;;;71.28;57.75;;;;;;;;;;4968124;28;20022;-70
2021/11/14 09:49:07;;;;;;;76.97;56.35;;;;;;;;;;4987935;28;20026;-70
2021/11/14 09:51:33;;;;;;;74.07;58.53;;;;;;;;;;4991720;28;20038;-70
2021/11/14 09:53:59;;;;;;;73.30;55.40;;;;;;;;;;4974164;28;20129;-70
2021/11/14 09:56:26;;;;;;;71.85;63.10;;;;;;;;;;4971171;28;20043;-69
2021/11/14 09:58:52;;;;;;;73.90;58.58;;;;;;;;;;4985537;28;20105;-70
2021/11/14 10:01:18;;;;;;;70.93;54.05;;;;;;;;;;4979057;28;20046;-70
2021/11/14 10:03:45;;;;;;;70.15;59.90;;;;;;;;;;4995499;28;20022;-69
2021/11/14 10:06:11;;;;;;;74.78;61.72;;;;;;;;;;4990455;28;20022;-70
2021/11/14 10:08:38;;;;;;;75.10;61.88;;;;;;;;;;4982650;28;20030;-69
2021/11/14 10:11:05;;;;;;;73.20;58.53;;;;;;;;;;4975018;28;20046;-70
2021/11/14 10:13:35;;;;;;;65.00;55.58;;;;;;;;;;4994979;28;20085;-70
2021/11/14 10:16:04;;;;;;;73.90;62.03;;;;;;;;;;4986488;28;20029;-69
2021/11/14 10:18:30;;;;;;;77.82;57.08;;;;;;;;;;4968182;28;20038;-69
2021/11/14 10:20:59;;;;;;;68.80;55.83;;;;;;;;;;4989138;28;20018;-69
2021/11/14 10:23:25;;;;;;;67.78;56.63;;;;;;;;;;4990667;28;20408;-70
2021/11/14 10:25:52;;;;;;;67.90;53.70;;;;;;;;;;4989853;28;20113;-69
2021/11/14 10:28:18;;;;;;;66.10;55.63;;;;;;;;;;4966568;28;20540;-69
2021/11/14 10:30:46;;;;;;;73.90;61.33;;;;;;;;;;4973961;28;20409;-69
2021/11/14 10:33:13;;;;;;;76.82;63.28;;;;;;;;;;4986793;28;20125;-70
2021/11/14 10:35:40;;;;;;;68.75;58.08;;;;;;;;;;4987743;28;20022;-70
2021/11/14 10:38:09;;;;;;;69.88;58.50;;;;;;;;;;4989397;28;20037;-70
2021/11/14 10:40:37;;;;;;;72.05;61.20;;;;;;;;;;4989336;28;20049;-71
2021/11/14 10:43:05;;;;;;;69.28;58.55;;;;;;;;;;4991256;28;20614;-69
2021/11/14 10:45:33;;;;;;;71.35;59.45;;;;;;;;;;4972536;28;20030;-69
2021/11/14 10:48:04;;;;;;;67.15;56.58;;;;;;;;;;4971009;28;20026;-69
2021/11/14 10:50:32;;;;;;;70.88;55.92;;;;;;;;;;4988273;28;20027;-69
2021/11/14 10:52:59;;;;;;;66.53;55.50;;;;;;;;;;4991933;28;20413;-69
2021/11/14 10:55:26;;;;;;;64.90;55.80;;;;;;;;;;4992617;28;20018;-69
2021/11/14 10:57:52;;;;;;;66.15;56.20;;;;;;;;;;4988775;28;20723;-69
2021/11/14 11:00:19;;;;;;;68.93;56.88;;;;;;;;;;4991053;28;20030;-70
2021/11/14 11:02:46;;;;;;;66.57;56.42;;;;;;;;;;4987528;28;20027;-69
2021/11/14 11:05:16;;;;;;;62.75;54.95;;;;;;;;;;4991571;28;20037;-69
2021/11/14 11:07:51;;;;;;;63.53;52.20;;;;;;;;;;4984139;28;20034;-70
2021/11/14 11:10:18;;;;;;;58.08;51.85;;;;;;;;;;4982121;28;20453;-69
2021/11/14 11:12:44;;;;;;;61.70;51.10;;;;;;;;;;4982577;28;20018;-69
2021/11/14 11:15:13;;;;;;;58.75;52.10;;;;;;;;;;4984600;28;20564;-70
2021/11/14 11:17:50;;;;;;;60.80;51.53;;;;;;;;;;4982667;28;20045;-69
2021/11/14 11:20:19;;;;;;;60.33;54.00;;;;;;;;;;4985094;28;20034;-70
2021/11/14 11:22:50;;;;;;;64.68;55.60;;;;;;;;;;5002049;28;20084;-70
2021/11/14 11:25:28;;;;;;;64.28;57.50;;;;;;;;;;4985621;28;20027;-71
2021/11/14 11:27:54;;;;;;;58.70;50.88;;;;;;;;;;4989897;28;20026;-69
2021/11/14 11:30:28;;;;;;;65.43;56.05;;;;;;;;;;4970319;28;20030;-70
2021/11/14 11:32:54;;;;;;;63.90;53.72;;;;;;;;;;4989455;28;20061;-70
2021/11/14 11:35:21;;;;;;;59.72;48.08;;;;;;;;;;4975870;28;20060;-70
2021/11/14 11:37:47;;;;;;;65.45;50.80;;;;;;;;;;4970621;28;20034;-69
2021/11/14 11:40:13;;;;;;;64.03;52.65;;;;;;;;;;4968098;28;20073;-69
2021/11/14 11:42:39;;;;;;;64.82;49.35;;;;;;;;;;4989358;28;20023;-70
2021/11/14 11:45:06;;;;;;;61.53;47.88;;;;;;;;;;4974672;28;20121;-70
2021/11/14 11:47:38;;;;;;;64.65;49.50;;;;;;;;;;4992515;28;20281;-70
2021/11/14 11:50:05;;;;;;;63.33;53.20;;;;;;;;;;4977806;28;20022;-70
2021/11/14 11:52:39;;;;;;;69.25;55.85;;;;;;;;;;4969140;28;20370;-69
2021/11/14 11:55:16;;;;;;;71.47;54.88;;;;;;;;;;4988622;28;20031;-70
2021/11/14 11:57:42;;;;;;;66.53;52.80;;;;;;;;;;4987049;28;20045;-70
2021/11/14 12:00:09;;;;;;;72.07;53.60;;;;;;;;;;4986317;28;20049;-69
2021/11/14 12:02:36;;;;;;;74.25;56.67;;;;;;;;;;4988966;28;20027;-70
2021/11/14 12:05:06;;;;;;;69.97;53.00;;;;;;;;;;4970293;28;20121;-70
2021/11/14 12:07:34;;;;;;;73.03;54.58;;;;;;;;;;4988288;28;20089;-70
2021/11/14 12:10:00;;;;;;;76.45;59.13;;;;;;;;;;4987969;28;20019;-71
2021/11/14 12:12:38;;;;;;;69.32;54.50;;;;;;;;;;4988694;28;20049;-71
2021/11/14 12:15:13;;;;;;;66.65;56.97;;;;;;;;;;4984829;28;20022;-70
2021/11/14 12:17:40;;;;;;;81.13;59.28;;;;;;;;;;4977563;28;20065;-70
2021/11/14 12:20:12;;;;;;;73.68;57.30;;;;;;;;;;4970483;28;20088;-70
2021/11/14 12:22:49;;;;;;;67.82;53.67;;;;;;;;;;4989857;28;20273;-70
2021/11/14 12:25:23;;;;;;;76.28;58.95;;;;;;;;;;4988128;28;20405;-70
2021/11/14 12:28:15;;;;;;;70.40;58.35;;;;;;;;;;4967745;28;20065;-69
2021/11/14 12:30:43;;;;;;;73.18;54.13;;;;;;;;;;4966169;28;20034;-70
2021/11/14 12:33:19;;;;;;;76.75;59.17;;;;;;;;;;4988743;28;20041;-70
2021/11/14 12:35:47;;;;;;;68.00;52.83;;;;;;;;;;4987648;28;20015;-70
2021/11/14 12:38:15;;;;;;;76.05;56.95;;;;;;;;;;4963546;28;20026;-70
2021/11/14 12:40:43;;;;;;;72.35;56.13;;;;;;;;;;4986771;28;20097;-70
2021/11/14 12:43:21;;;;;;;72.00;60.13;;;;;;;;;;4969111;28;20096;-70
2021/11/14 12:45:46;;;;;;;66.35;53.30;;;;;;;;;;4979127;28;20058;-70
2021/11/14 12:48:13;;;;;;;74.65;56.33;;;;;;;;;;4979146;28;20512;-71
2021/11/14 12:50:39;;;;;;;70.60;57.85;;;;;;;;;;4983665;28;20066;-70
2021/11/14 12:53:12;;;;;;;71.53;56.75;;;;;;;;;;4986070;28;20022;-70
2021/11/14 12:55:40;;;;;;;78.00;58.08;;;;;;;;;;4986399;28;20030;-70
2021/11/14 12:58:08;;;;;;;76.20;60.92;;;;;;;;;;4977931;28;20250;-71
2021/11/14 13:00:39;;;;;;;74.55;57.95;;;;;;;;;;4987425;28;20033;-70
2021/11/14 13:03:05;;;;;;;;;;;;;;;;;;4986112;28;20520;-70
2021/11/14 13:05:44;;;;;;;71.97;58.13;;;;;;;;;;4987706;28;20084;-69
2021/11/14 13:08:16;;;;;;;73.93;58.20;;;;;;;;;;4988893;28;20018;-70
2021/11/14 13:10:47;;;;;;;70.70;59.22;;;;;;;;;;4990308;28;20033;-70
2021/11/14 13:13:17;;;;;;;76.23;60.70;;;;;;;;;;4985242;28;20092;-70
2021/11/14 13:15:53;;;;;;;62.92;56.25;;;;;;;;;;4984880;28;20038;-70
2021/11/14 13:18:19;;;;;;;64.55;57.38;;;;;;;;;;4982341;28;20410;-70
2021/11/14 13:20:49;;;;;;;65.28;58.65;;;;;;;;;;4987197;28;20050;-71
2021/11/14 13:23:15;;;;;;;67.15;60.08;;;;;;;;;;4989801;28;20027;-70
2021/11/14 13:25:41;;;;;;;66.50;57.30;;;;;;;;;;4972087;28;20034;-70
2021/11/14 13:28:07;;;;;;;62.38;55.75;;;;;;;;;;4990314;28;20637;-70
2021/11/14 13:30:33;;;;;;;65.10;58.17;;;;;;;;;;4994111;28;20033;-69
2021/11/14 13:33:01;;;;;;;62.28;55.75;;;;;;;;;;4991467;28;21645;-69
2021/11/14 13:35:27;;;;;;;64.75;57.83;;;;;;;;;;4971983;28;20106;-70
2021/11/14 13:37:53;;;;;;;59.78;53.25;;;;;;;;;;4988614;28;20113;-70
2021/11/14 13:40:21;;;;;;;58.17;52.17;;;;;;;;;;4990434;28;20038;-70
2021/11/14 13:42:52;;;;;;;58.78;52.67;;;;;;;;;;4987555;28;20661;-70
2021/11/14 13:45:25;;;;;;;56.27;50.30;;;;;;;;;;4989057;28;20038;-70
2021/11/14 13:47:52;;;;;;;57.38;51.13;;;;;;;;;;4989557;28;20284;-70
2021/11/14 13:50:24;;;;;;;56.47;50.53;;;;;;;;;;4992758;28;20489;-70
2021/11/14 13:52:55;;;;;;;61.58;54.97;;;;;;;;;;4986535;28;20369;-70
2021/11/14 13:55:22;;;;;;;57.60;51.53;;;;;;;;;;4986892;28;20089;-71
2021/11/14 13:57:49;;;;;;;58.05;51.90;;;;;;;;;;4989312;28;20033;-70
2021/11/14 14:00:26;;;;;;;60.38;51.10;;;;;;;;;;4973148;28;20049;-71
2021/11/14 14:02:52;;;;;;;60.47;52.28;;;;;;;;;;4986941;28;20031;-70
2021/11/14 14:05:19;;;;;;;62.58;53.90;;;;;;;;;;4975032;28;20042;-70
2021/11/14 14:07:45;;;;;;;60.03;53.45;;;;;;;;;;4991063;28;20077;-71
2021/11/14 14:10:14;;;;;;;62.00;51.00;;;;;;;;;;4971886;28;20114;-74
2021/11/14 14:12:42;;;;;;;57.47;49.70;;;;;;;;;;4991211;28;20038;-70
2021/11/14 14:15:10;;;;;;;62.97;56.25;;;;;;;;;;4986010;28;20015;-70
2021/11/14 14:17:36;;;;;;;59.63;52.88;;;;;;;;;;4990658;28;20046;-70
2021/11/14 14:20:03;;;;;;;59.92;52.20;;;;;;;;;;4966649;28;20046;-71